sensor_id;sensor_type;location;lat;lon;timestamp;pressure;altitude;pressure_sealevel;temperature;humidity
76424;BME280;65257;52.104;4.268;2024-02-26T00:02:15;99828.13;;;6.71;72.84
76424;BME280;65257;52.104;4.268;2024-02-26T00:04:40;99822.00;;;6.71;72.71
76424;BME280;65257;52.104;4.268;2024-02-26T00:07:06;99820.19;;;6.71;72.89
76424;BME280;65257;52.104;4.268;2024-02-26T00:09:32;99834.22;;;6.72;72.50
76424;BME280;65257;52.104;4.268;2024-02-26T00:12:01;99839.50;;;6.72;72.57
76424;BME280;65257;52.104;4.268;2024-02-26T00:14:26;99835.06;;;6.72;72.65
76424;BME280;65257;52.104;4.268;2024-02-26T00:16:52;99830.63;;;6.73;72.66
76424;BME280;65257;52.104;4.268;2024-02-26T00:19:17;99839.50;;;6.72;72.46
76424;BME280;65257;52.104;4.268;2024-02-26T00:21:42;99835.06;;;6.72;72.47
76424;BME280;65257;52.104;4.268;2024-02-26T00:24:08;99836.88;;;6.72;72.60
76424;BME280;65257;52.104;4.268;2024-02-26T00:26:33;99841.34;;;6.71;72.46
76424;BME280;65257;52.104;4.268;2024-02-26T00:28:59;99841.44;;;6.70;72.57
76424;BME280;65257;52.104;4.268;2024-02-26T00:31:24;99833.53;;;6.70;72.59
76424;BME280;65257;52.104;4.268;2024-02-26T00:33:50;99842.28;;;6.70;72.64
76424;BME280;65257;52.104;4.268;2024-02-26T00:36:15;99837.00;;;6.70;72.45
76424;BME280;65257;52.104;4.268;2024-02-26T00:38:41;99843.25;;;6.69;72.56
76424;BME280;65257;52.104;4.268;2024-02-26T00:41:08;99850.22;;;6.70;72.61
76424;BME280;65257;52.104;4.268;2024-02-26T00:43:33;99847.56;;;6.70;72.31
76424;BME280;65257;52.104;4.268;2024-02-26T00:45:59;99844.78;;;6.72;72.64
76424;BME280;65257;52.104;4.268;2024-02-26T00:48:24;99843.00;;;6.72;72.77
76424;BME280;65257;52.104;4.268;2024-02-26T00:50:51;99837.84;;;6.71;72.62
76424;BME280;65257;52.104;4.268;2024-02-26T00:53:16;99840.50;;;6.71;72.75
76424;BME280;65257;52.104;4.268;2024-02-26T00:55:42;99845.91;;;6.69;72.79
76424;BME280;65257;52.104;4.268;2024-02-26T00:58:07;99841.72;;;6.67;72.95
76424;BME280;65257;52.104;4.268;2024-02-26T01:00:33;99845.47;;;6.64;72.65
76424;BME280;65257;52.104;4.268;2024-02-26T01:02:58;99850.91;;;6.63;72.96
76424;BME280;65257;52.104;4.268;2024-02-26T01:05:25;99850.06;;;6.62;73.16
76424;BME280;65257;52.104;4.268;2024-02-26T01:07:50;99855.50;;;6.61;73.41
76424;BME280;65257;52.104;4.268;2024-02-26T01:10:15;99847.69;;;6.59;73.35
76424;BME280;65257;52.104;4.268;2024-02-26T01:12:41;99853.09;;;6.58;73.54
76424;BME280;65257;52.104;4.268;2024-02-26T01:15:07;99852.25;;;6.57;73.29
76424;BME280;65257;52.104;4.268;2024-02-26T01:17:33;99850.47;;;6.58;73.74
76424;BME280;65257;52.104;4.268;2024-02-26T01:19:58;99851.31;;;6.58;73.72
76424;BME280;65257;52.104;4.268;2024-02-26T01:22:24;99862.69;;;6.59;73.76
76424;BME280;65257;52.104;4.268;2024-02-26T01:24:50;99861.72;;;6.60;73.50
76424;BME280;65257;52.104;4.268;2024-02-26T01:27:15;99862.69;;;6.59;73.80
76424;BME280;65257;52.104;4.268;2024-02-26T01:29:41;99860.78;;;6.61;73.59
76424;BME280;65257;52.104;4.268;2024-02-26T01:32:07;99860.78;;;6.61;73.63
76424;BME280;65257;52.104;4.268;2024-02-26T01:34:32;99861.59;;;6.61;73.78
76424;BME280;65257;52.104;4.268;2024-02-26T01:36:58;99855.50;;;6.61;73.81
76424;BME280;65257;52.104;4.268;2024-02-26T01:39:23;99860.88;;;6.59;73.96
76424;BME280;65257;52.104;4.268;2024-02-26T01:41:49;99846.03;;;6.58;74.18
76424;BME280;65257;52.104;4.268;2024-02-26T01:44:14;99845.31;;;6.56;74.10
76424;BME280;65257;52.104;4.268;2024-02-26T01:46:40;99849.75;;;6.56;74.12
76424;BME280;65257;52.104;4.268;2024-02-26T01:49:06;99851.56;;;6.55;74.24
76424;BME280;65257;52.104;4.268;2024-02-26T01:51:33;99848.09;;;6.55;74.16
76424;BME280;65257;52.104;4.268;2024-02-26T01:53:59;99850.03;;;6.53;74.30
76424;BME280;65257;52.104;4.268;2024-02-26T01:56:27;99858.78;;;6.53;74.49
76424;BME280;65257;52.104;4.268;2024-02-26T01:58:56;99849.03;;;6.54;74.20
76424;BME280;65257;52.104;4.268;2024-02-26T02:01:22;99858.78;;;6.53;74.50
76424;BME280;65257;52.104;4.268;2024-02-26T02:03:51;99875.19;;;6.57;74.17
76424;BME280;65257;52.104;4.268;2024-02-26T02:06:17;99872.44;;;6.58;74.34
76424;BME280;65257;52.104;4.268;2024-02-26T02:08:43;99872.28;;;6.60;74.36
76424;BME280;65257;52.104;4.268;2024-02-26T02:11:08;99881.75;;;6.62;74.21
76424;BME280;65257;52.104;4.268;2024-02-26T02:13:37;99885.09;;;6.64;74.33
76424;BME280;65257;52.104;4.268;2024-02-26T02:16:02;99884.13;;;6.65;73.80
76424;BME280;65257;52.104;4.268;2024-02-26T02:18:28;99891.06;;;6.66;74.07
76424;BME280;65257;52.104;4.268;2024-02-26T02:20:53;99891.81;;;6.68;73.89
76424;BME280;65257;52.104;4.268;2024-02-26T02:23:19;99884.72;;;6.69;73.92
76424;BME280;65257;52.104;4.268;2024-02-26T02:25:44;99901.38;;;6.69;74.00
76424;BME280;65257;52.104;4.268;2024-02-26T02:28:10;99896.09;;;6.69;74.19
76424;BME280;65257;52.104;4.268;2024-02-26T02:30:35;99901.25;;;6.71;73.93
76424;BME280;65257;52.104;4.268;2024-02-26T02:33:02;99891.53;;;6.71;73.74
76424;BME280;65257;52.104;4.268;2024-02-26T02:35:27;99903.06;;;6.70;73.67
76424;BME280;65257;52.104;4.268;2024-02-26T02:37:53;99902.09;;;6.71;73.91
76424;BME280;65257;52.104;4.268;2024-02-26T02:40:18;99905.56;;;6.72;73.78
76424;BME280;65257;52.104;4.268;2024-02-26T02:42:44;99905.72;;;6.70;73.65
76424;BME280;65257;52.104;4.268;2024-02-26T02:45:09;99902.22;;;6.70;73.65
76424;BME280;65257;52.104;4.268;2024-02-26T02:47:38;99914.47;;;6.71;73.66
76424;BME280;65257;52.104;4.268;2024-02-26T02:50:03;99908.34;;;6.70;73.63
76424;BME280;65257;52.104;4.268;2024-02-26T02:52:29;99910.16;;;6.70;73.39
76424;BME280;65257;52.104;4.268;2024-02-26T02:54:54;99912.09;;;6.68;73.56
76424;BME280;65257;52.104;4.268;2024-02-26T02:57:19;99907.66;;;6.68;73.15
76424;BME280;65257;52.104;4.268;2024-02-26T02:59:46;99909.44;;;6.68;73.35
76424;BME280;65257;52.104;4.268;2024-02-26T03:02:11;99920.13;;;6.66;73.44
76424;BME280;65257;52.104;4.268;2024-02-26T03:04:37;99920.28;;;6.65;73.61
76424;BME280;65257;52.104;4.268;2024-02-26T03:07:02;99918.47;;;6.65;73.77
76424;BME280;65257;52.104;4.268;2024-02-26T03:09:28;99919.44;;;6.64;73.68
76424;BME280;65257;52.104;4.268;2024-02-26T03:11:53;99928.34;;;6.63;73.85
76424;BME280;65257;52.104;4.268;2024-02-26T03:14:18;99934.44;;;6.64;73.81
76424;BME280;65257;52.104;4.268;2024-02-26T03:16:44;99927.50;;;6.63;73.97
76424;BME280;65257;52.104;4.268;2024-02-26T03:19:09;99937.22;;;6.62;73.87
76424;BME280;65257;52.104;4.268;2024-02-26T03:21:35;99935.56;;;6.61;74.03
76424;BME280;65257;52.104;4.268;2024-02-26T03:24:00;99941.81;;;6.60;74.07
76424;BME280;65257;52.104;4.268;2024-02-26T03:26:26;99935.69;;;6.60;74.10
76424;BME280;65257;52.104;4.268;2024-02-26T03:28:51;99943.78;;;6.58;74.38
76424;BME280;65257;52.104;4.268;2024-02-26T03:31:16;99946.41;;;6.58;74.28
76424;BME280;65257;52.104;4.268;2024-02-26T03:33:42;99952.66;;;6.57;74.19
76424;BME280;65257;52.104;4.268;2024-02-26T03:36:07;99950.13;;;6.56;74.33
76424;BME280;65257;52.104;4.268;2024-02-26T03:38:33;99966.13;;;6.54;74.55
76424;BME280;65257;52.104;4.268;2024-02-26T03:40:58;99963.63;;;6.53;74.68
76424;BME280;65257;52.104;4.268;2024-02-26T03:43:23;99969.16;;;6.50;74.75
76424;BME280;65257;52.104;4.268;2024-02-26T03:45:49;99964.00;;;6.48;74.91
76424;BME280;65257;52.104;4.268;2024-02-26T03:48:14;99971.91;;;6.48;74.52
76424;BME280;65257;52.104;4.268;2024-02-26T03:50:40;99969.41;;;6.47;74.78
76424;BME280;65257;52.104;4.268;2024-02-26T03:53:05;99971.22;;;6.46;74.59
76424;BME280;65257;52.104;4.268;2024-02-26T03:55:30;99979.03;;;6.48;74.79
76424;BME280;65257;52.104;4.268;2024-02-26T03:57:56;99983.47;;;6.47;74.89
76424;BME280;65257;52.104;4.268;2024-02-26T04:00:22;99981.91;;;6.45;74.98
76424;BME280;65257;52.104;4.268;2024-02-26T04:02:47;99981.06;;;6.44;75.00
76424;BME280;65257;52.104;4.268;2024-02-26T04:05:13;99981.34;;;6.41;75.09
76424;BME280;65257;52.104;4.268;2024-02-26T04:07:39;99983.97;;;6.41;75.09
76424;BME280;65257;52.104;4.268;2024-02-26T04:10:11;99983.28;;;6.39;75.70
76424;BME280;65257;52.104;4.268;2024-02-26T04:12:41;99985.22;;;6.37;75.26
76424;BME280;65257;52.104;4.268;2024-02-26T04:15:10;99993.13;;;6.37;75.48
76424;BME280;65257;52.104;4.268;2024-02-26T04:17:36;99989.66;;;6.37;75.48
76424;BME280;65257;52.104;4.268;2024-02-26T04:20:03;100001.16;;;6.36;75.50
76424;BME280;65257;52.104;4.268;2024-02-26T04:22:29;100003.81;;;6.36;75.47
76424;BME280;65257;52.104;4.268;2024-02-26T04:24:55;100003.94;;;6.34;75.62
76424;BME280;65257;52.104;4.268;2024-02-26T04:27:21;100003.22;;;6.32;75.29
76424;BME280;65257;52.104;4.268;2024-02-26T04:29:46;100013.94;;;6.31;75.49
76424;BME280;65257;52.104;4.268;2024-02-26T04:32:11;100006.97;;;6.30;75.68
76424;BME280;65257;52.104;4.268;2024-02-26T04:34:37;100020.31;;;6.28;75.72
76424;BME280;65257;52.104;4.268;2024-02-26T04:37:02;100025.59;;;6.28;75.76
76424;BME280;65257;52.104;4.268;2024-02-26T04:39:28;100027.38;;;6.28;75.69
76424;BME280;65257;52.104;4.268;2024-02-26T04:41:53;100031.00;;;6.27;75.81
76424;BME280;65257;52.104;4.268;2024-02-26T04:44:18;100033.66;;;6.27;75.67
76424;BME280;65257;52.104;4.268;2024-02-26T04:46:44;100030.16;;;6.26;75.61
76424;BME280;65257;52.104;4.268;2024-02-26T04:49:09;100040.72;;;6.26;75.80
76424;BME280;65257;52.104;4.268;2024-02-26T04:51:35;100039.88;;;6.26;75.67
76424;BME280;65257;52.104;4.268;2024-02-26T04:54:00;100033.91;;;6.24;75.77
76424;BME280;65257;52.104;4.268;2024-02-26T04:56:25;100047.94;;;6.24;76.04
76424;BME280;65257;52.104;4.268;2024-02-26T04:58:51;100048.06;;;6.23;75.73
76424;BME280;65257;52.104;4.268;2024-02-26T05:01:16;100047.94;;;6.24;75.50
76424;BME280;65257;52.104;4.268;2024-02-26T05:03:42;100043.47;;;6.25;75.65
76424;BME280;65257;52.104;4.268;2024-02-26T05:06:08;100051.41;;;6.25;75.78
76424;BME280;65257;52.104;4.268;2024-02-26T05:08:34;100044.47;;;6.24;75.76
76424;BME280;65257;52.104;4.268;2024-02-26T05:11:01;100047.09;;;6.24;76.15
76424;BME280;65257;52.104;4.268;2024-02-26T05:13:28;100042.78;;;6.23;76.11
76424;BME280;65257;52.104;4.268;2024-02-26T05:15:53;100057.66;;;6.24;75.94
76424;BME280;65257;52.104;4.268;2024-02-26T05:18:19;100053.34;;;6.23;75.93
76424;BME280;65257;52.104;4.268;2024-02-26T05:20:44;100057.78;;;6.22;75.86
76424;BME280;65257;52.104;4.268;2024-02-26T05:23:09;100064.13;;;6.20;76.19
76424;BME280;65257;52.104;4.268;2024-02-26T05:25:35;100065.13;;;6.19;76.22
76424;BME280;65257;52.104;4.268;2024-02-26T05:28:00;100067.88;;;6.17;76.22
76424;BME280;65257;52.104;4.268;2024-02-26T05:30:26;100060.78;;;6.18;76.30
76424;BME280;65257;52.104;4.268;2024-02-26T05:32:54;100071.34;;;6.18;76.30
76424;BME280;65257;52.104;4.268;2024-02-26T05:35:19;100074.13;;;6.16;76.35
76424;BME280;65257;52.104;4.268;2024-02-26T05:37:45;100078.69;;;6.14;76.48
76424;BME280;65257;52.104;4.268;2024-02-26T05:40:11;100067.31;;;6.13;77.06
76424;BME280;65257;52.104;4.268;2024-02-26T05:42:36;100082.31;;;6.13;76.78
76424;BME280;65257;52.104;4.268;2024-02-26T05:45:02;100085.91;;;6.12;76.90
76424;BME280;65257;52.104;4.268;2024-02-26T05:47:34;100072.84;;;6.10;77.02
76424;BME280;65257;52.104;4.268;2024-02-26T05:49:59;100091.16;;;6.12;76.94
76424;BME280;65257;52.104;4.268;2024-02-26T05:52:26;100094.06;;;6.09;76.99
76424;BME280;65257;52.104;4.268;2024-02-26T05:54:52;100090.56;;;6.08;76.89
76424;BME280;65257;52.104;4.268;2024-02-26T05:57:18;100088.06;;;6.07;77.06
76424;BME280;65257;52.104;4.268;2024-02-26T05:59:44;100109.06;;;6.08;77.07
76424;BME280;65257;52.104;4.268;2024-02-26T06:02:09;100115.31;;;6.07;77.45
76424;BME280;65257;52.104;4.268;2024-02-26T06:04:34;100111.13;;;6.05;77.57
76424;BME280;65257;52.104;4.268;2024-02-26T06:07:00;100122.63;;;6.04;77.74
76424;BME280;65257;52.104;4.268;2024-02-26T06:09:25;100123.63;;;6.03;77.55
76424;BME280;65257;52.104;4.268;2024-02-26T06:11:51;100126.25;;;6.03;78.24
76424;BME280;65257;52.104;4.268;2024-02-26T06:14:16;100128.91;;;6.03;77.87
76424;BME280;65257;52.104;4.268;2024-02-26T06:16:44;100130.56;;;6.04;77.63
76424;BME280;65257;52.104;4.268;2024-02-26T06:19:09;100134.03;;;6.04;77.74
76424;BME280;65257;52.104;4.268;2024-02-26T06:21:34;100142.81;;;6.05;77.75
76424;BME280;65257;52.104;4.268;2024-02-26T06:24:01;100133.91;;;6.06;77.81
76424;BME280;65257;52.104;4.268;2024-02-26T06:26:26;100144.59;;;6.04;78.15
76424;BME280;65257;52.104;4.268;2024-02-26T06:28:54;100150.13;;;6.01;78.41
76424;BME280;65257;52.104;4.268;2024-02-26T06:31:20;100151.91;;;6.01;78.40
76424;BME280;65257;52.104;4.268;2024-02-26T06:33:47;100152.88;;;6.00;78.60
76424;BME280;65257;52.104;4.268;2024-02-26T06:36:12;100170.53;;;5.99;78.14
76424;BME280;65257;52.104;4.268;2024-02-26T06:38:38;100182.16;;;5.97;78.45
76424;BME280;65257;52.104;4.268;2024-02-26T06:41:03;100160.22;;;5.96;78.26
76424;BME280;65257;52.104;4.268;2024-02-26T06:43:29;100174.34;;;5.95;78.31
76424;BME280;65257;52.104;4.268;2024-02-26T06:45:54;100178.06;;;5.93;78.37
76424;BME280;65257;52.104;4.268;2024-02-26T06:48:19;100180.00;;;5.91;78.91
76424;BME280;65257;52.104;4.268;2024-02-26T06:50:45;100187.06;;;5.90;78.24
76424;BME280;65257;52.104;4.268;2024-02-26T06:53:10;100189.72;;;5.90;78.75
76424;BME280;65257;52.104;4.268;2024-02-26T06:55:36;100189.84;;;5.89;78.47
76424;BME280;65257;52.104;4.268;2024-02-26T06:58:05;100188.91;;;5.90;78.58
76424;BME280;65257;52.104;4.268;2024-02-26T07:00:30;100187.06;;;5.90;78.47
76424;BME280;65257;52.104;4.268;2024-02-26T07:02:56;100201.13;;;5.91;78.54
76424;BME280;65257;52.104;4.268;2024-02-26T07:05:21;100186.13;;;5.91;78.38
76424;BME280;65257;52.104;4.268;2024-02-26T07:07:46;100193.91;;;5.93;78.41
76424;BME280;65257;52.104;4.268;2024-02-26T07:10:12;100213.94;;;5.95;78.44
76424;BME280;65257;52.104;4.268;2024-02-26T07:12:38;100225.56;;;5.93;78.62
76424;BME280;65257;52.104;4.268;2024-02-26T07:15:04;100213.47;;;5.90;78.82
76424;BME280;65257;52.104;4.268;2024-02-26T07:17:30;100224.88;;;5.91;78.86
76424;BME280;65257;52.104;4.268;2024-02-26T07:19:55;100224.16;;;5.89;79.29
76424;BME280;65257;52.104;4.268;2024-02-26T07:22:21;100231.22;;;5.88;79.05
76424;BME280;65257;52.104;4.268;2024-02-26T07:24:46;100236.50;;;5.88;78.86
76424;BME280;65257;52.104;4.268;2024-02-26T07:27:12;100234.56;;;5.90;78.71
76424;BME280;65257;52.104;4.268;2024-02-26T07:29:37;100267.09;;;5.91;78.71
76424;BME280;65257;52.104;4.268;2024-02-26T07:32:03;100249.47;;;5.91;78.76
76424;BME280;65257;52.104;4.268;2024-02-26T07:34:28;100249.31;;;5.93;78.46
76424;BME280;65257;52.104;4.268;2024-02-26T07:36:55;100258.00;;;5.95;78.25
76424;BME280;65257;52.104;4.268;2024-02-26T07:39:21;100259.88;;;5.93;78.46
76424;BME280;65257;52.104;4.268;2024-02-26T07:41:46;100262.53;;;5.93;78.29
76424;BME280;65257;52.104;4.268;2024-02-26T07:44:15;100267.94;;;5.91;77.90
76424;BME280;65257;52.104;4.268;2024-02-26T07:46:40;100281.97;;;5.92;78.18
76424;BME280;65257;52.104;4.268;2024-02-26T07:49:06;100278.34;;;5.93;78.18
76424;BME280;65257;52.104;4.268;2024-02-26T07:51:31;100286.28;;;5.93;78.12
76424;BME280;65257;52.104;4.268;2024-02-26T07:53:56;100282.56;;;5.95;78.14
76424;BME280;65257;52.104;4.268;2024-02-26T07:56:22;100285.94;;;5.97;77.95
76424;BME280;65257;52.104;4.268;2024-02-26T07:58:47;100292.03;;;5.98;77.71
76424;BME280;65257;52.104;4.268;2024-02-26T08:01:13;100298.91;;;6.00;77.76
76424;BME280;65257;52.104;4.268;2024-02-26T08:03:39;100302.34;;;6.01;78.24
76424;BME280;65257;52.104;4.268;2024-02-26T08:06:05;100312.09;;;6.00;77.55
76424;BME280;65257;52.104;4.268;2024-02-26T08:08:30;100304.19;;;6.00;77.14
76424;BME280;65257;52.104;4.268;2024-02-26T08:10:56;100312.91;;;6.01;77.13
76424;BME280;65257;52.104;4.268;2024-02-26T08:13:21;100318.94;;;6.03;77.14
76424;BME280;65257;52.104;4.268;2024-02-26T08:15:47;100325.16;;;6.02;77.30
76424;BME280;65257;52.104;4.268;2024-02-26T08:18:12;100307.63;;;6.01;77.00
76424;BME280;65257;52.104;4.268;2024-02-26T08:20:37;100318.09;;;6.02;76.96
76424;BME280;65257;52.104;4.268;2024-02-26T08:23:04;100332.00;;;6.04;77.04
76424;BME280;65257;52.104;4.268;2024-02-26T08:25:29;100330.31;;;6.03;76.74
76424;BME280;65257;52.104;4.268;2024-02-26T08:27:54;100324.31;;;6.01;76.83
76424;BME280;65257;52.104;4.268;2024-02-26T08:30:20;100345.34;;;6.03;76.65
76424;BME280;65257;52.104;4.268;2024-02-26T08:32:47;100336.44;;;6.04;76.74
76424;BME280;65257;52.104;4.268;2024-02-26T08:35:12;100338.22;;;6.03;76.70
76424;BME280;65257;52.104;4.268;2024-02-26T08:37:38;100344.25;;;6.05;76.19
76424;BME280;65257;52.104;4.268;2024-02-26T08:40:04;100342.34;;;6.07;76.62
76424;BME280;65257;52.104;4.268;2024-02-26T08:42:30;100338.00;;;6.06;76.24
76424;BME280;65257;52.104;4.268;2024-02-26T08:44:55;100346.75;;;6.07;76.10
76424;BME280;65257;52.104;4.268;2024-02-26T08:47:20;100348.69;;;6.05;75.87
76424;BME280;65257;52.104;4.268;2024-02-26T08:49:46;100352.28;;;6.04;75.72
76424;BME280;65257;52.104;4.268;2024-02-26T08:52:11;100353.72;;;6.08;75.64
76424;BME280;65257;52.104;4.268;2024-02-26T08:54:37;100358.78;;;6.11;75.99
76424;BME280;65257;52.104;4.268;2024-02-26T08:57:03;100363.69;;;6.15;75.85
76424;BME280;65257;52.104;4.268;2024-02-26T08:59:29;100361.06;;;6.15;75.62
76424;BME280;65257;52.104;4.268;2024-02-26T09:01:54;100368.75;;;6.19;75.64
76424;BME280;65257;52.104;4.268;2024-02-26T09:04:20;100362.38;;;6.21;75.61
76424;BME280;65257;52.104;4.268;2024-02-26T09:06:46;100379.03;;;6.22;75.25
76424;BME280;65257;52.104;4.268;2024-02-26T09:09:11;100391.19;;;6.24;75.13
76424;BME280;65257;52.104;4.268;2024-02-26T09:11:36;100388.19;;;6.29;75.24
76424;BME280;65257;52.104;4.268;2024-02-26T09:14:02;100400.19;;;6.33;74.96
76424;BME280;65257;52.104;4.268;2024-02-26T09:16:29;100393.94;;;6.34;75.03
76424;BME280;65257;52.104;4.268;2024-02-26T09:18:55;100405.13;;;6.37;74.72
76424;BME280;65257;52.104;4.268;2024-02-26T09:21:20;100402.13;;;6.42;74.54
76424;BME280;65257;52.104;4.268;2024-02-26T09:23:51;100407.88;;;6.47;74.43
76424;BME280;65257;52.104;4.268;2024-02-26T09:26:16;100408.72;;;6.47;74.28
76424;BME280;65257;52.104;4.268;2024-02-26T09:28:42;100414.88;;;6.48;74.25
76424;BME280;65257;52.104;4.268;2024-02-26T09:31:08;100412.94;;;6.50;74.15
76424;BME280;65257;52.104;4.268;2024-02-26T09:33:33;100423.00;;;6.56;74.23
76424;BME280;65257;52.104;4.268;2024-02-26T09:35:59;100426.84;;;6.63;73.92
76424;BME280;65257;52.104;4.268;2024-02-26T09:38:28;100430.81;;;6.68;74.07
76424;BME280;65257;52.104;4.268;2024-02-26T09:40:56;100426.97;;;6.72;73.71
76424;BME280;65257;52.104;4.268;2024-02-26T09:43:22;100436.34;;;6.76;73.68
76424;BME280;65257;52.104;4.268;2024-02-26T09:45:52;100445.69;;;6.81;73.76
76424;BME280;65257;52.104;4.268;2024-02-26T09:48:18;100448.72;;;6.87;73.59
76424;BME280;65257;52.104;4.268;2024-02-26T09:50:44;100449.44;;;6.89;73.59
76424;BME280;65257;52.104;4.268;2024-02-26T09:53:11;100455.44;;;6.91;73.43
76424;BME280;65257;52.104;4.268;2024-02-26T09:55:37;100457.13;;;6.92;73.57
76424;BME280;65257;52.104;4.268;2024-02-26T09:58:05;100463.13;;;6.94;73.22
76424;BME280;65257;52.104;4.268;2024-02-26T10:00:30;100463.00;;;6.96;73.42
76424;BME280;65257;52.104;4.268;2024-02-26T10:03:03;100478.63;;;6.99;73.44
76424;BME280;65257;52.104;4.268;2024-02-26T10:05:29;100473.31;;;6.99;73.12
76424;BME280;65257;52.104;4.268;2024-02-26T10:07:57;100490.66;;;7.03;73.02
76424;BME280;65257;52.104;4.268;2024-02-26T10:10:23;100477.41;;;7.03;72.86
76424;BME280;65257;52.104;4.268;2024-02-26T10:12:48;100481.72;;;7.04;73.11
76424;BME280;65257;52.104;4.268;2024-02-26T10:15:14;100491.34;;;7.05;73.07
76424;BME280;65257;52.104;4.268;2024-02-26T10:17:40;100488.94;;;7.13;73.10
76424;BME280;65257;52.104;4.268;2024-02-26T10:20:16;100489.28;;;7.19;72.61
76424;BME280;65257;52.104;4.268;2024-02-26T10:22:48;100504.66;;;7.25;72.00
76424;BME280;65257;52.104;4.268;2024-02-26T10:25:14;100503.22;;;7.32;71.74
76424;BME280;65257;52.104;4.268;2024-02-26T10:27:40;100506.09;;;7.40;71.44
76424;BME280;65257;52.104;4.268;2024-02-26T10:30:16;100513.28;;;7.50;71.40
76424;BME280;65257;52.104;4.268;2024-02-26T10:32:46;100501.84;;;7.60;71.26
76424;BME280;65257;52.104;4.268;2024-02-26T10:35:13;100506.25;;;7.71;70.76
76424;BME280;65257;52.104;4.268;2024-02-26T10:37:40;100509.69;;;7.82;70.40
76424;BME280;65257;52.104;4.268;2024-02-26T10:40:10;100520.22;;;8.05;70.61
76424;BME280;65257;52.104;4.268;2024-02-26T10:42:36;100516.88;;;8.23;69.47
76424;BME280;65257;52.104;4.268;2024-02-26T10:45:01;100518.75;;;8.32;68.62
76424;BME280;65257;52.104;4.268;2024-02-26T10:47:28;100532.59;;;8.56;69.20
76424;BME280;65257;52.104;4.268;2024-02-26T10:49:54;100529.63;;;8.71;67.69
76424;BME280;65257;52.104;4.268;2024-02-26T10:52:20;100543.91;;;8.79;67.43
76424;BME280;65257;52.104;4.268;2024-02-26T10:54:47;100555.69;;;8.86;67.12
76424;BME280;65257;52.104;4.268;2024-02-26T10:57:15;100550.84;;;9.01;66.94
76424;BME280;65257;52.104;4.268;2024-02-26T10:59:42;100558.97;;;9.09;66.46
76424;BME280;65257;52.104;4.268;2024-02-26T11:02:09;100554.69;;;9.08;66.21
76424;BME280;65257;52.104;4.268;2024-02-26T11:04:35;100569.88;;;9.06;65.98
76424;BME280;65257;52.104;4.268;2024-02-26T11:07:02;100566.66;;;9.02;65.71
76424;BME280;65257;52.104;4.268;2024-02-26T11:09:29;100576.81;;;8.97;65.88
76424;BME280;65257;52.104;4.268;2024-02-26T11:11:56;100578.59;;;8.87;65.57
76424;BME280;65257;52.104;4.268;2024-02-26T11:14:22;100585.59;;;8.77;66.17
76424;BME280;65257;52.104;4.268;2024-02-26T11:16:51;100589.66;;;8.72;66.36
76424;BME280;65257;52.104;4.268;2024-02-26T11:19:18;100578.00;;;8.63;66.44
76424;BME280;65257;52.104;4.268;2024-02-26T11:21:43;100594.81;;;8.52;66.65
76424;BME280;65257;52.104;4.268;2024-02-26T11:24:12;100616.41;;;8.48;66.88
76424;BME280;65257;52.104;4.268;2024-02-26T11:26:59;100608.25;;;8.40;66.16
76424;BME280;65257;52.104;4.268;2024-02-26T11:29:29;100604.50;;;8.42;66.86
76424;BME280;65257;52.104;4.268;2024-02-26T11:31:59;100609.25;;;8.48;67.07
76424;BME280;65257;52.104;4.268;2024-02-26T11:34:25;100612.66;;;8.50;67.01
76424;BME280;65257;52.104;4.268;2024-02-26T11:36:51;100602.66;;;8.43;66.55
76424;BME280;65257;52.104;4.268;2024-02-26T11:39:16;100614.63;;;8.37;66.60
76424;BME280;65257;52.104;4.268;2024-02-26T11:41:42;100612.88;;;8.27;66.62
76424;BME280;65257;52.104;4.268;2024-02-26T11:44:08;100608.63;;;8.24;66.70
76424;BME280;65257;52.104;4.268;2024-02-26T11:46:39;100608.16;;;8.19;66.84
76424;BME280;65257;52.104;4.268;2024-02-26T11:51:53;100622.06;;;8.00;67.05
76424;BME280;65257;52.104;4.268;2024-02-26T11:54:51;100625.69;;;7.99;67.06
76424;BME280;65257;52.104;4.268;2024-02-26T11:57:22;100621.34;;;7.98;67.20
76424;BME280;65257;52.104;4.268;2024-02-26T11:59:48;100618.22;;;7.93;66.93
76424;BME280;65257;52.104;4.268;2024-02-26T12:02:39;100626.78;;;7.97;67.02
76424;BME280;65257;52.104;4.268;2024-02-26T12:05:09;100638.06;;;7.99;66.93
76424;BME280;65257;52.104;4.268;2024-02-26T12:07:39;100628.09;;;8.02;66.43
76424;BME280;65257;52.104;4.268;2024-02-26T12:10:15;100643.13;;;8.02;66.70
76424;BME280;65257;52.104;4.268;2024-02-26T12:12:41;100637.34;;;8.08;66.35
76424;BME280;65257;52.104;4.268;2024-02-26T12:15:08;100640.47;;;8.13;66.39
76424;BME280;65257;52.104;4.268;2024-02-26T12:17:34;100638.28;;;8.18;66.14
76424;BME280;65257;52.104;4.268;2024-02-26T12:20:13;100648.38;;;8.24;66.51
76424;BME280;65257;52.104;4.268;2024-02-26T12:22:39;100649.44;;;8.33;65.77
76424;BME280;65257;52.104;4.268;2024-02-26T12:25:06;100647.59;;;8.44;65.80
76424;BME280;65257;52.104;4.268;2024-02-26T12:27:31;100659.13;;;8.54;65.19
76424;BME280;65257;52.104;4.268;2024-02-26T12:29:57;100662.63;;;8.55;64.95
76424;BME280;65257;52.104;4.268;2024-02-26T12:32:23;100659.72;;;8.58;64.61
76424;BME280;65257;52.104;4.268;2024-02-26T12:34:49;100660.88;;;8.65;64.94
76424;BME280;65257;52.104;4.268;2024-02-26T12:37:15;100661.25;;;8.72;63.93
76424;BME280;65257;52.104;4.268;2024-02-26T12:39:41;100660.34;;;8.82;64.05
76424;BME280;65257;52.104;4.268;2024-02-26T12:42:07;100662.25;;;9.01;63.87
76424;BME280;65257;52.104;4.268;2024-02-26T12:44:32;100671.16;;;9.11;63.14
76424;BME280;65257;52.104;4.268;2024-02-26T12:47:04;100666.72;;;9.21;62.59
76424;BME280;65257;52.104;4.268;2024-02-26T12:49:30;100675.59;;;9.31;62.14
76424;BME280;65257;52.104;4.268;2024-02-26T12:51:56;100685.03;;;9.45;62.07
76424;BME280;65257;52.104;4.268;2024-02-26T12:54:28;100686.78;;;9.65;62.12
76424;BME280;65257;52.104;4.268;2024-02-26T12:56:54;100703.22;;;9.79;61.37
76424;BME280;65257;52.104;4.268;2024-02-26T12:59:20;100701.97;;;9.83;61.46
76424;BME280;65257;52.104;4.268;2024-02-26T13:01:46;100716.38;;;9.91;61.38
76424;BME280;65257;52.104;4.268;2024-02-26T13:04:11;100705.22;;;9.97;60.77